<?xml version="1.0" encoding="UTF-8" standalone="no" ?>
<gpx xmlns="http://www.topografix.com/GPX/1/1" xmlns:xsi="http://www.w3.org/2001/XMLSchema-instance" xsi:schemaLocation="http://www.topografix.com/GPX/1/1 http://www.topografix.com/GPX/1/1/gpx.xsd" version="1.1" creator="VisuGPX - https://www.visugpx.com">
  <metadata>
    <name>Course à pied le matin</name>
  </metadata>
  <trk>
    <name><![CDATA[Course à pied le matin_1]]></name>
    <trkseg>
      <trkpt lat="48.71136" lon="7.16309">
        <ele>317.2</ele>
        <time>2023-12-06T08:07:51Z</time>
      </trkpt>
      <trkpt lat="48.71135" lon="7.16303">
        <ele>317.3</ele>
        <time>2023-12-06T08:07:53Z</time>
      </trkpt>
      <trkpt lat="48.71138" lon="7.16298">
        <ele>317.4</ele>
        <time>2023-12-06T08:07:55Z</time>
      </trkpt>
      <trkpt lat="48.71146" lon="7.16284">
        <ele>317.6</ele>
        <time>2023-12-06T08:08:01Z</time>
      </trkpt>
      <trkpt lat="48.71145" lon="7.16278">
        <ele>317.6</ele>
        <time>2023-12-06T08:08:03Z</time>
      </trkpt>
      <trkpt lat="48.71131" lon="7.16262">
        <ele>317.9</ele>
        <time>2023-12-06T08:08:11Z</time>
      </trkpt>
      <trkpt lat="48.71116" lon="7.16241">
        <ele>318</ele>
        <time>2023-12-06T08:08:19Z</time>
      </trkpt>
      <trkpt lat="48.711" lon="7.16223">
        <ele>318.1</ele>
        <time>2023-12-06T08:08:27Z</time>
      </trkpt>
      <trkpt lat="48.71085" lon="7.16203">
        <ele>318.3</ele>
        <time>2023-12-06T08:08:35Z</time>
      </trkpt>
      <trkpt lat="48.71069" lon="7.16186">
        <ele>318.4</ele>
        <time>2023-12-06T08:08:43Z</time>
      </trkpt>
      <trkpt lat="48.7105" lon="7.16179">
        <ele>318.6</ele>
        <time>2023-12-06T08:08:51Z</time>
      </trkpt>
      <trkpt lat="48.71031" lon="7.16175">
        <ele>318.6</ele>
        <time>2023-12-06T08:08:59Z</time>
      </trkpt>
      <trkpt lat="48.71011" lon="7.16171">
        <ele>318.8</ele>
        <time>2023-12-06T08:09:07Z</time>
      </trkpt>
      <trkpt lat="48.70992" lon="7.16165">
        <ele>319.2</ele>
        <time>2023-12-06T08:09:15Z</time>
      </trkpt>
      <trkpt lat="48.70973" lon="7.16163">
        <ele>319.7</ele>
        <time>2023-12-06T08:09:22Z</time>
      </trkpt>
      <trkpt lat="48.70954" lon="7.16159">
        <ele>320.3</ele>
        <time>2023-12-06T08:09:30Z</time>
      </trkpt>
      <trkpt lat="48.70935" lon="7.16156">
        <ele>321.1</ele>
        <time>2023-12-06T08:09:38Z</time>
      </trkpt>
      <trkpt lat="48.70915" lon="7.16152">
        <ele>321.8</ele>
        <time>2023-12-06T08:09:46Z</time>
      </trkpt>
      <trkpt lat="48.70896" lon="7.16144">
        <ele>322.5</ele>
        <time>2023-12-06T08:09:55Z</time>
      </trkpt>
      <trkpt lat="48.70878" lon="7.16139">
        <ele>323.2</ele>
        <time>2023-12-06T08:10:03Z</time>
      </trkpt>
      <trkpt lat="48.70859" lon="7.16132">
        <ele>323.8</ele>
        <time>2023-12-06T08:10:12Z</time>
      </trkpt>
      <trkpt lat="48.70842" lon="7.16127">
        <ele>324.6</ele>
        <time>2023-12-06T08:10:20Z</time>
      </trkpt>
      <trkpt lat="48.70825" lon="7.16139">
        <ele>326.2</ele>
        <time>2023-12-06T08:10:31Z</time>
      </trkpt>
      <trkpt lat="48.70811" lon="7.16158">
        <ele>327.8</ele>
        <time>2023-12-06T08:10:38Z</time>
      </trkpt>
      <trkpt lat="48.70799" lon="7.16182">
        <ele>329.4</ele>
        <time>2023-12-06T08:10:47Z</time>
      </trkpt>
      <trkpt lat="48.70788" lon="7.16204">
        <ele>330.8</ele>
        <time>2023-12-06T08:10:55Z</time>
      </trkpt>
      <trkpt lat="48.70777" lon="7.16226">
        <ele>332.3</ele>
        <time>2023-12-06T08:11:03Z</time>
      </trkpt>
      <trkpt lat="48.70764" lon="7.16247">
        <ele>334.1</ele>
        <time>2023-12-06T08:11:11Z</time>
      </trkpt>
      <trkpt lat="48.70752" lon="7.16269">
        <ele>335.9</ele>
        <time>2023-12-06T08:11:19Z</time>
      </trkpt>
      <trkpt lat="48.7074" lon="7.16293">
        <ele>337.7</ele>
        <time>2023-12-06T08:11:28Z</time>
      </trkpt>
      <trkpt lat="48.70728" lon="7.16313">
        <ele>339.1</ele>
        <time>2023-12-06T08:11:36Z</time>
      </trkpt>
      <trkpt lat="48.70716" lon="7.16335">
        <ele>340.6</ele>
        <time>2023-12-06T08:11:44Z</time>
      </trkpt>
      <trkpt lat="48.70704" lon="7.16357">
        <ele>342.1</ele>
        <time>2023-12-06T08:11:52Z</time>
      </trkpt>
      <trkpt lat="48.70692" lon="7.16379">
        <ele>343.6</ele>
        <time>2023-12-06T08:12:01Z</time>
      </trkpt>
      <trkpt lat="48.7068" lon="7.164">
        <ele>345.2</ele>
        <time>2023-12-06T08:12:09Z</time>
      </trkpt>
      <trkpt lat="48.70667" lon="7.16422">
        <ele>346.7</ele>
        <time>2023-12-06T08:12:17Z</time>
      </trkpt>
      <trkpt lat="48.70663" lon="7.16433">
        <ele>347.3</ele>
        <time>2023-12-06T08:12:21Z</time>
      </trkpt>
      <trkpt lat="48.7068" lon="7.16448">
        <ele>347.6</ele>
        <time>2023-12-06T08:12:29Z</time>
      </trkpt>
      <trkpt lat="48.70698" lon="7.16462">
        <ele>347.6</ele>
        <time>2023-12-06T08:12:37Z</time>
      </trkpt>
      <trkpt lat="48.70716" lon="7.16478">
        <ele>347.5</ele>
        <time>2023-12-06T08:12:45Z</time>
      </trkpt>
      <trkpt lat="48.70733" lon="7.16495">
        <ele>347.2</ele>
        <time>2023-12-06T08:12:53Z</time>
      </trkpt>
      <trkpt lat="48.70748" lon="7.16509">
        <ele>346.9</ele>
        <time>2023-12-06T08:12:59Z</time>
      </trkpt>
      <trkpt lat="48.70763" lon="7.16525">
        <ele>346.5</ele>
        <time>2023-12-06T08:13:06Z</time>
      </trkpt>
      <trkpt lat="48.7078" lon="7.16542">
        <ele>346.2</ele>
        <time>2023-12-06T08:13:14Z</time>
      </trkpt>
      <trkpt lat="48.70797" lon="7.16557">
        <ele>345.8</ele>
        <time>2023-12-06T08:13:22Z</time>
      </trkpt>
      <trkpt lat="48.70814" lon="7.1657">
        <ele>345.6</ele>
        <time>2023-12-06T08:13:30Z</time>
      </trkpt>
      <trkpt lat="48.70832" lon="7.16582">
        <ele>345.6</ele>
        <time>2023-12-06T08:13:38Z</time>
      </trkpt>
      <trkpt lat="48.70848" lon="7.16595">
        <ele>345.5</ele>
        <time>2023-12-06T08:13:45Z</time>
      </trkpt>
      <trkpt lat="48.70864" lon="7.16611">
        <ele>345.4</ele>
        <time>2023-12-06T08:13:52Z</time>
      </trkpt>
      <trkpt lat="48.70878" lon="7.1663">
        <ele>345.3</ele>
        <time>2023-12-06T08:14:00Z</time>
      </trkpt>
      <trkpt lat="48.70893" lon="7.16648">
        <ele>345.3</ele>
        <time>2023-12-06T08:14:07Z</time>
      </trkpt>
      <trkpt lat="48.70906" lon="7.16667">
        <ele>345.3</ele>
        <time>2023-12-06T08:14:14Z</time>
      </trkpt>
      <trkpt lat="48.7092" lon="7.16689">
        <ele>345.3</ele>
        <time>2023-12-06T08:14:22Z</time>
      </trkpt>
      <trkpt lat="48.70935" lon="7.16707">
        <ele>345.2</ele>
        <time>2023-12-06T08:14:30Z</time>
      </trkpt>
      <trkpt lat="48.7095" lon="7.16723">
        <ele>345.2</ele>
        <time>2023-12-06T08:14:37Z</time>
      </trkpt>
      <trkpt lat="48.70961" lon="7.16747">
        <ele>345.4</ele>
        <time>2023-12-06T08:14:45Z</time>
      </trkpt>
      <trkpt lat="48.70967" lon="7.16776">
        <ele>345.8</ele>
        <time>2023-12-06T08:14:53Z</time>
      </trkpt>
      <trkpt lat="48.70966" lon="7.16803">
        <ele>346.3</ele>
        <time>2023-12-06T08:15:01Z</time>
      </trkpt>
      <trkpt lat="48.70964" lon="7.16833">
        <ele>346.6</ele>
        <time>2023-12-06T08:15:11Z</time>
      </trkpt>
      <trkpt lat="48.70974" lon="7.16856">
        <ele>347.1</ele>
        <time>2023-12-06T08:15:21Z</time>
      </trkpt>
      <trkpt lat="48.70986" lon="7.16877">
        <ele>347.4</ele>
        <time>2023-12-06T08:15:31Z</time>
      </trkpt>
      <trkpt lat="48.70993" lon="7.16903">
        <ele>347.9</ele>
        <time>2023-12-06T08:15:39Z</time>
      </trkpt>
      <trkpt lat="48.70997" lon="7.16931">
        <ele>348.5</ele>
        <time>2023-12-06T08:15:47Z</time>
      </trkpt>
      <trkpt lat="48.70996" lon="7.16961">
        <ele>349.2</ele>
        <time>2023-12-06T08:15:55Z</time>
      </trkpt>
      <trkpt lat="48.70997" lon="7.1699">
        <ele>349.7</ele>
        <time>2023-12-06T08:16:03Z</time>
      </trkpt>
      <trkpt lat="48.71002" lon="7.17017">
        <ele>350.1</ele>
        <time>2023-12-06T08:16:12Z</time>
      </trkpt>
      <trkpt lat="48.71002" lon="7.17045">
        <ele>350.4</ele>
        <time>2023-12-06T08:16:20Z</time>
      </trkpt>
      <trkpt lat="48.70999" lon="7.17075">
        <ele>350.6</ele>
        <time>2023-12-06T08:16:29Z</time>
      </trkpt>
      <trkpt lat="48.70989" lon="7.17099">
        <ele>350.9</ele>
        <time>2023-12-06T08:16:36Z</time>
      </trkpt>
      <trkpt lat="48.70979" lon="7.17124">
        <ele>351.2</ele>
        <time>2023-12-06T08:16:44Z</time>
      </trkpt>
      <trkpt lat="48.7097" lon="7.17149">
        <ele>351.6</ele>
        <time>2023-12-06T08:16:52Z</time>
      </trkpt>
      <trkpt lat="48.70961" lon="7.17174">
        <ele>352.1</ele>
        <time>2023-12-06T08:17:00Z</time>
      </trkpt>
      <trkpt lat="48.70953" lon="7.17201">
        <ele>352.6</ele>
        <time>2023-12-06T08:17:09Z</time>
      </trkpt>
      <trkpt lat="48.70947" lon="7.17229">
        <ele>353.1</ele>
        <time>2023-12-06T08:17:18Z</time>
      </trkpt>
      <trkpt lat="48.70944" lon="7.17257">
        <ele>353.4</ele>
        <time>2023-12-06T08:17:27Z</time>
      </trkpt>
      <trkpt lat="48.70947" lon="7.17285">
        <ele>353.6</ele>
        <time>2023-12-06T08:17:36Z</time>
      </trkpt>
      <trkpt lat="48.70955" lon="7.17311">
        <ele>353.9</ele>
        <time>2023-12-06T08:17:44Z</time>
      </trkpt>
      <trkpt lat="48.70964" lon="7.17336">
        <ele>354.1</ele>
        <time>2023-12-06T08:17:52Z</time>
      </trkpt>
      <trkpt lat="48.70973" lon="7.1736">
        <ele>354.3</ele>
        <time>2023-12-06T08:17:59Z</time>
      </trkpt>
      <trkpt lat="48.70982" lon="7.17386">
        <ele>354.4</ele>
        <time>2023-12-06T08:18:06Z</time>
      </trkpt>
      <trkpt lat="48.7099" lon="7.17412">
        <ele>354.5</ele>
        <time>2023-12-06T08:18:13Z</time>
      </trkpt>
      <trkpt lat="48.70997" lon="7.1744">
        <ele>354.7</ele>
        <time>2023-12-06T08:18:20Z</time>
      </trkpt>
      <trkpt lat="48.71004" lon="7.17465">
        <ele>354.9</ele>
        <time>2023-12-06T08:18:27Z</time>
      </trkpt>
      <trkpt lat="48.71005" lon="7.17494">
        <ele>355.1</ele>
        <time>2023-12-06T08:18:34Z</time>
      </trkpt>
      <trkpt lat="48.71003" lon="7.17522">
        <ele>355.4</ele>
        <time>2023-12-06T08:18:41Z</time>
      </trkpt>
      <trkpt lat="48.71001" lon="7.1755">
        <ele>355.7</ele>
        <time>2023-12-06T08:18:48Z</time>
      </trkpt>
      <trkpt lat="48.70999" lon="7.17578">
        <ele>356.1</ele>
        <time>2023-12-06T08:18:55Z</time>
      </trkpt>
      <trkpt lat="48.71" lon="7.17607">
        <ele>356.6</ele>
        <time>2023-12-06T08:19:02Z</time>
      </trkpt>
      <trkpt lat="48.71004" lon="7.17636">
        <ele>357.1</ele>
        <time>2023-12-06T08:19:10Z</time>
      </trkpt>
      <trkpt lat="48.71013" lon="7.1766">
        <ele>357.5</ele>
        <time>2023-12-06T08:19:17Z</time>
      </trkpt>
      <trkpt lat="48.71026" lon="7.1768">
        <ele>357.8</ele>
        <time>2023-12-06T08:19:24Z</time>
      </trkpt>
      <trkpt lat="48.7104" lon="7.17701">
        <ele>358</ele>
        <time>2023-12-06T08:19:31Z</time>
      </trkpt>
      <trkpt lat="48.71054" lon="7.1772">
        <ele>358.3</ele>
        <time>2023-12-06T08:19:38Z</time>
      </trkpt>
      <trkpt lat="48.71067" lon="7.17739">
        <ele>358.4</ele>
        <time>2023-12-06T08:19:45Z</time>
      </trkpt>
      <trkpt lat="48.71081" lon="7.17759">
        <ele>358.5</ele>
        <time>2023-12-06T08:19:52Z</time>
      </trkpt>
      <trkpt lat="48.71096" lon="7.17778">
        <ele>358.5</ele>
        <time>2023-12-06T08:19:59Z</time>
      </trkpt>
      <trkpt lat="48.7111" lon="7.17797">
        <ele>358.5</ele>
        <time>2023-12-06T08:20:06Z</time>
      </trkpt>
      <trkpt lat="48.71125" lon="7.17817">
        <ele>358.6</ele>
        <time>2023-12-06T08:20:13Z</time>
      </trkpt>
      <trkpt lat="48.71138" lon="7.17838">
        <ele>358.5</ele>
        <time>2023-12-06T08:20:20Z</time>
      </trkpt>
      <trkpt lat="48.71152" lon="7.17858">
        <ele>358.5</ele>
        <time>2023-12-06T08:20:27Z</time>
      </trkpt>
      <trkpt lat="48.71165" lon="7.17881">
        <ele>358.6</ele>
        <time>2023-12-06T08:20:34Z</time>
      </trkpt>
      <trkpt lat="48.71177" lon="7.17903">
        <ele>358.8</ele>
        <time>2023-12-06T08:20:41Z</time>
      </trkpt>
      <trkpt lat="48.7119" lon="7.17926">
        <ele>359</ele>
        <time>2023-12-06T08:20:48Z</time>
      </trkpt>
      <trkpt lat="48.71202" lon="7.17948">
        <ele>359.2</ele>
        <time>2023-12-06T08:20:55Z</time>
      </trkpt>
      <trkpt lat="48.71213" lon="7.17972">
        <ele>359.5</ele>
        <time>2023-12-06T08:21:02Z</time>
      </trkpt>
      <trkpt lat="48.71223" lon="7.17997">
        <ele>359.7</ele>
        <time>2023-12-06T08:21:09Z</time>
      </trkpt>
      <trkpt lat="48.71234" lon="7.18022">
        <ele>359.9</ele>
        <time>2023-12-06T08:21:16Z</time>
      </trkpt>
      <trkpt lat="48.71243" lon="7.18047">
        <ele>360.1</ele>
        <time>2023-12-06T08:21:23Z</time>
      </trkpt>
      <trkpt lat="48.71253" lon="7.18071">
        <ele>360.4</ele>
        <time>2023-12-06T08:21:30Z</time>
      </trkpt>
      <trkpt lat="48.71263" lon="7.18095">
        <ele>360.6</ele>
        <time>2023-12-06T08:21:37Z</time>
      </trkpt>
      <trkpt lat="48.71273" lon="7.18118">
        <ele>360.7</ele>
        <time>2023-12-06T08:21:44Z</time>
      </trkpt>
      <trkpt lat="48.71283" lon="7.18143">
        <ele>360.8</ele>
        <time>2023-12-06T08:21:51Z</time>
      </trkpt>
      <trkpt lat="48.71293" lon="7.18168">
        <ele>361</ele>
        <time>2023-12-06T08:21:58Z</time>
      </trkpt>
      <trkpt lat="48.71303" lon="7.18193">
        <ele>361.2</ele>
        <time>2023-12-06T08:22:05Z</time>
      </trkpt>
      <trkpt lat="48.71313" lon="7.18217">
        <ele>361.4</ele>
        <time>2023-12-06T08:22:12Z</time>
      </trkpt>
      <trkpt lat="48.71324" lon="7.18241">
        <ele>361.5</ele>
        <time>2023-12-06T08:22:19Z</time>
      </trkpt>
      <trkpt lat="48.71334" lon="7.18264">
        <ele>361.5</ele>
        <time>2023-12-06T08:22:26Z</time>
      </trkpt>
      <trkpt lat="48.71346" lon="7.18288">
        <ele>361.5</ele>
        <time>2023-12-06T08:22:34Z</time>
      </trkpt>
      <trkpt lat="48.71358" lon="7.18313">
        <ele>361.6</ele>
        <time>2023-12-06T08:22:42Z</time>
      </trkpt>
      <trkpt lat="48.71369" lon="7.18336">
        <ele>361.7</ele>
        <time>2023-12-06T08:22:49Z</time>
      </trkpt>
      <trkpt lat="48.7138" lon="7.18358">
        <ele>361.7</ele>
        <time>2023-12-06T08:22:56Z</time>
      </trkpt>
      <trkpt lat="48.7139" lon="7.18381">
        <ele>362.1</ele>
        <time>2023-12-06T08:23:03Z</time>
      </trkpt>
      <trkpt lat="48.71402" lon="7.18406">
        <ele>362.8</ele>
        <time>2023-12-06T08:23:11Z</time>
      </trkpt>
      <trkpt lat="48.71413" lon="7.18429">
        <ele>363</ele>
        <time>2023-12-06T08:23:18Z</time>
      </trkpt>
      <trkpt lat="48.71425" lon="7.18451">
        <ele>363.1</ele>
        <time>2023-12-06T08:23:25Z</time>
      </trkpt>
      <trkpt lat="48.71436" lon="7.18475">
        <ele>363.3</ele>
        <time>2023-12-06T08:23:32Z</time>
      </trkpt>
      <trkpt lat="48.71448" lon="7.18498">
        <ele>363.4</ele>
        <time>2023-12-06T08:23:39Z</time>
      </trkpt>
      <trkpt lat="48.71459" lon="7.18522">
        <ele>363.5</ele>
        <time>2023-12-06T08:23:46Z</time>
      </trkpt>
      <trkpt lat="48.71469" lon="7.18548">
        <ele>363.5</ele>
        <time>2023-12-06T08:23:53Z</time>
      </trkpt>
      <trkpt lat="48.7148" lon="7.18574">
        <ele>363.5</ele>
        <time>2023-12-06T08:24:01Z</time>
      </trkpt>
      <trkpt lat="48.71491" lon="7.18597">
        <ele>363.5</ele>
        <time>2023-12-06T08:24:08Z</time>
      </trkpt>
      <trkpt lat="48.71502" lon="7.1862">
        <ele>363.5</ele>
        <time>2023-12-06T08:24:15Z</time>
      </trkpt>
      <trkpt lat="48.71514" lon="7.18643">
        <ele>363.5</ele>
        <time>2023-12-06T08:24:22Z</time>
      </trkpt>
      <trkpt lat="48.71524" lon="7.18669">
        <ele>363.5</ele>
        <time>2023-12-06T08:24:29Z</time>
      </trkpt>
      <trkpt lat="48.71535" lon="7.18695">
        <ele>363.4</ele>
        <time>2023-12-06T08:24:36Z</time>
      </trkpt>
      <trkpt lat="48.71547" lon="7.1872">
        <ele>363.3</ele>
        <time>2023-12-06T08:24:43Z</time>
      </trkpt>
      <trkpt lat="48.7156" lon="7.18743">
        <ele>363.2</ele>
        <time>2023-12-06T08:24:50Z</time>
      </trkpt>
      <trkpt lat="48.71573" lon="7.18767">
        <ele>363.1</ele>
        <time>2023-12-06T08:24:57Z</time>
      </trkpt>
      <trkpt lat="48.71584" lon="7.18791">
        <ele>362.9</ele>
        <time>2023-12-06T08:25:04Z</time>
      </trkpt>
      <trkpt lat="48.71594" lon="7.18814">
        <ele>362.8</ele>
        <time>2023-12-06T08:25:10Z</time>
      </trkpt>
      <trkpt lat="48.71605" lon="7.18839">
        <ele>362.7</ele>
        <time>2023-12-06T08:25:17Z</time>
      </trkpt>
      <trkpt lat="48.71619" lon="7.18863">
        <ele>362</ele>
        <time>2023-12-06T08:25:25Z</time>
      </trkpt>
      <trkpt lat="48.71632" lon="7.18882">
        <ele>362.1</ele>
        <time>2023-12-06T08:25:33Z</time>
      </trkpt>
      <trkpt lat="48.7164" lon="7.18911">
        <ele>362.3</ele>
        <time>2023-12-06T08:25:40Z</time>
      </trkpt>
      <trkpt lat="48.71645" lon="7.18937">
        <ele>362.4</ele>
        <time>2023-12-06T08:25:46Z</time>
      </trkpt>
      <trkpt lat="48.71657" lon="7.18963">
        <ele>362.3</ele>
        <time>2023-12-06T08:25:52Z</time>
      </trkpt>
      <trkpt lat="48.7167" lon="7.18986">
        <ele>362.1</ele>
        <time>2023-12-06T08:25:58Z</time>
      </trkpt>
      <trkpt lat="48.71682" lon="7.19011">
        <ele>361.7</ele>
        <time>2023-12-06T08:26:05Z</time>
      </trkpt>
      <trkpt lat="48.71693" lon="7.19034">
        <ele>361.1</ele>
        <time>2023-12-06T08:26:11Z</time>
      </trkpt>
      <trkpt lat="48.71703" lon="7.19056">
        <ele>360.5</ele>
        <time>2023-12-06T08:26:17Z</time>
      </trkpt>
      <trkpt lat="48.71715" lon="7.19077">
        <ele>359.9</ele>
        <time>2023-12-06T08:26:23Z</time>
      </trkpt>
      <trkpt lat="48.71726" lon="7.19098">
        <ele>359.3</ele>
        <time>2023-12-06T08:26:29Z</time>
      </trkpt>
      <trkpt lat="48.71737" lon="7.19121">
        <ele>358.4</ele>
        <time>2023-12-06T08:26:35Z</time>
      </trkpt>
      <trkpt lat="48.71746" lon="7.19144">
        <ele>357.4</ele>
        <time>2023-12-06T08:26:41Z</time>
      </trkpt>
      <trkpt lat="48.71756" lon="7.19168">
        <ele>356.1</ele>
        <time>2023-12-06T08:26:47Z</time>
      </trkpt>
      <trkpt lat="48.71765" lon="7.19192">
        <ele>354.6</ele>
        <time>2023-12-06T08:26:53Z</time>
      </trkpt>
      <trkpt lat="48.71776" lon="7.19215">
        <ele>352.9</ele>
        <time>2023-12-06T08:26:59Z</time>
      </trkpt>
      <trkpt lat="48.71787" lon="7.19239">
        <ele>351.1</ele>
        <time>2023-12-06T08:27:05Z</time>
      </trkpt>
      <trkpt lat="48.71796" lon="7.19264">
        <ele>349.3</ele>
        <time>2023-12-06T08:27:11Z</time>
      </trkpt>
      <trkpt lat="48.71808" lon="7.19291">
        <ele>347.4</ele>
        <time>2023-12-06T08:27:17Z</time>
      </trkpt>
      <trkpt lat="48.71819" lon="7.19318">
        <ele>346</ele>
        <time>2023-12-06T08:27:23Z</time>
      </trkpt>
      <trkpt lat="48.7183" lon="7.19342">
        <ele>345</ele>
        <time>2023-12-06T08:27:29Z</time>
      </trkpt>
      <trkpt lat="48.71841" lon="7.19364">
        <ele>344.3</ele>
        <time>2023-12-06T08:27:35Z</time>
      </trkpt>
      <trkpt lat="48.71851" lon="7.19388">
        <ele>343.5</ele>
        <time>2023-12-06T08:27:41Z</time>
      </trkpt>
      <trkpt lat="48.71863" lon="7.19412">
        <ele>342.9</ele>
        <time>2023-12-06T08:27:48Z</time>
      </trkpt>
      <trkpt lat="48.71878" lon="7.19434">
        <ele>342.2</ele>
        <time>2023-12-06T08:27:55Z</time>
      </trkpt>
      <trkpt lat="48.71891" lon="7.19455">
        <ele>341.8</ele>
        <time>2023-12-06T08:28:02Z</time>
      </trkpt>
      <trkpt lat="48.71904" lon="7.19479">
        <ele>341.3</ele>
        <time>2023-12-06T08:28:09Z</time>
      </trkpt>
      <trkpt lat="48.71913" lon="7.19486">
        <ele>341.1</ele>
        <time>2023-12-06T08:28:13Z</time>
      </trkpt>
      <trkpt lat="48.71911" lon="7.19459">
        <ele>341</ele>
        <time>2023-12-06T08:28:19Z</time>
      </trkpt>
      <trkpt lat="48.71907" lon="7.19431">
        <ele>340.9</ele>
        <time>2023-12-06T08:28:25Z</time>
      </trkpt>
      <trkpt lat="48.71905" lon="7.19404">
        <ele>341</ele>
        <time>2023-12-06T08:28:31Z</time>
      </trkpt>
      <trkpt lat="48.71904" lon="7.19372">
        <ele>341.1</ele>
        <time>2023-12-06T08:28:38Z</time>
      </trkpt>
      <trkpt lat="48.71905" lon="7.19343">
        <ele>341.4</ele>
        <time>2023-12-06T08:28:45Z</time>
      </trkpt>
      <trkpt lat="48.71907" lon="7.19315">
        <ele>341.8</ele>
        <time>2023-12-06T08:28:52Z</time>
      </trkpt>
      <trkpt lat="48.71909" lon="7.19288">
        <ele>342.5</ele>
        <time>2023-12-06T08:28:59Z</time>
      </trkpt>
      <trkpt lat="48.71911" lon="7.1926">
        <ele>343.3</ele>
        <time>2023-12-06T08:29:06Z</time>
      </trkpt>
      <trkpt lat="48.71914" lon="7.19232">
        <ele>344</ele>
        <time>2023-12-06T08:29:13Z</time>
      </trkpt>
      <trkpt lat="48.71916" lon="7.19202">
        <ele>344.8</ele>
        <time>2023-12-06T08:29:20Z</time>
      </trkpt>
      <trkpt lat="48.71914" lon="7.19173">
        <ele>345.5</ele>
        <time>2023-12-06T08:29:27Z</time>
      </trkpt>
      <trkpt lat="48.7191" lon="7.19146">
        <ele>346.2</ele>
        <time>2023-12-06T08:29:34Z</time>
      </trkpt>
      <trkpt lat="48.71904" lon="7.1912">
        <ele>346.7</ele>
        <time>2023-12-06T08:29:41Z</time>
      </trkpt>
      <trkpt lat="48.71896" lon="7.19092">
        <ele>347.1</ele>
        <time>2023-12-06T08:29:49Z</time>
      </trkpt>
      <trkpt lat="48.71886" lon="7.19068">
        <ele>347.7</ele>
        <time>2023-12-06T08:29:56Z</time>
      </trkpt>
      <trkpt lat="48.71876" lon="7.19043">
        <ele>348.3</ele>
        <time>2023-12-06T08:30:03Z</time>
      </trkpt>
      <trkpt lat="48.71865" lon="7.19019">
        <ele>348.7</ele>
        <time>2023-12-06T08:30:10Z</time>
      </trkpt>
      <trkpt lat="48.71854" lon="7.18995">
        <ele>349.1</ele>
        <time>2023-12-06T08:30:17Z</time>
      </trkpt>
      <trkpt lat="48.71845" lon="7.18969">
        <ele>349.4</ele>
        <time>2023-12-06T08:30:24Z</time>
      </trkpt>
      <trkpt lat="48.71836" lon="7.18941">
        <ele>349.6</ele>
        <time>2023-12-06T08:30:31Z</time>
      </trkpt>
      <trkpt lat="48.71828" lon="7.18913">
        <ele>349.8</ele>
        <time>2023-12-06T08:30:38Z</time>
      </trkpt>
      <trkpt lat="48.71821" lon="7.18884">
        <ele>349.9</ele>
        <time>2023-12-06T08:30:45Z</time>
      </trkpt>
      <trkpt lat="48.71815" lon="7.18855">
        <ele>350</ele>
        <time>2023-12-06T08:30:52Z</time>
      </trkpt>
      <trkpt lat="48.71809" lon="7.18825">
        <ele>350</ele>
        <time>2023-12-06T08:30:59Z</time>
      </trkpt>
      <trkpt lat="48.71803" lon="7.18797">
        <ele>349.8</ele>
        <time>2023-12-06T08:31:06Z</time>
      </trkpt>
      <trkpt lat="48.71797" lon="7.18769">
        <ele>349.6</ele>
        <time>2023-12-06T08:31:13Z</time>
      </trkpt>
      <trkpt lat="48.71789" lon="7.18741">
        <ele>349.5</ele>
        <time>2023-12-06T08:31:20Z</time>
      </trkpt>
      <trkpt lat="48.7178" lon="7.18715">
        <ele>349.5</ele>
        <time>2023-12-06T08:31:27Z</time>
      </trkpt>
      <trkpt lat="48.71773" lon="7.18686">
        <ele>349.2</ele>
        <time>2023-12-06T08:31:34Z</time>
      </trkpt>
      <trkpt lat="48.7177" lon="7.18656">
        <ele>348.7</ele>
        <time>2023-12-06T08:31:41Z</time>
      </trkpt>
      <trkpt lat="48.71767" lon="7.18625">
        <ele>348.1</ele>
        <time>2023-12-06T08:31:48Z</time>
      </trkpt>
      <trkpt lat="48.71767" lon="7.18594">
        <ele>347.5</ele>
        <time>2023-12-06T08:31:55Z</time>
      </trkpt>
      <trkpt lat="48.71766" lon="7.18566">
        <ele>347</ele>
        <time>2023-12-06T08:32:01Z</time>
      </trkpt>
      <trkpt lat="48.71766" lon="7.18538">
        <ele>346.4</ele>
        <time>2023-12-06T08:32:07Z</time>
      </trkpt>
      <trkpt lat="48.71767" lon="7.18511">
        <ele>345.8</ele>
        <time>2023-12-06T08:32:13Z</time>
      </trkpt>
      <trkpt lat="48.71769" lon="7.18483">
        <ele>345.1</ele>
        <time>2023-12-06T08:32:19Z</time>
      </trkpt>
      <trkpt lat="48.71772" lon="7.18456">
        <ele>344.6</ele>
        <time>2023-12-06T08:32:25Z</time>
      </trkpt>
      <trkpt lat="48.71775" lon="7.18429">
        <ele>344.2</ele>
        <time>2023-12-06T08:32:31Z</time>
      </trkpt>
      <trkpt lat="48.71779" lon="7.18398">
        <ele>343.8</ele>
        <time>2023-12-06T08:32:38Z</time>
      </trkpt>
      <trkpt lat="48.71783" lon="7.18367">
        <ele>343.6</ele>
        <time>2023-12-06T08:32:45Z</time>
      </trkpt>
      <trkpt lat="48.71786" lon="7.1834">
        <ele>343.5</ele>
        <time>2023-12-06T08:32:51Z</time>
      </trkpt>
      <trkpt lat="48.71789" lon="7.1831">
        <ele>343.5</ele>
        <time>2023-12-06T08:32:58Z</time>
      </trkpt>
      <trkpt lat="48.71793" lon="7.18279">
        <ele>343.7</ele>
        <time>2023-12-06T08:33:05Z</time>
      </trkpt>
      <trkpt lat="48.71799" lon="7.1825">
        <ele>343.9</ele>
        <time>2023-12-06T08:33:12Z</time>
      </trkpt>
      <trkpt lat="48.71805" lon="7.18223">
        <ele>344.2</ele>
        <time>2023-12-06T08:33:19Z</time>
      </trkpt>
      <trkpt lat="48.71812" lon="7.18195">
        <ele>344.4</ele>
        <time>2023-12-06T08:33:26Z</time>
      </trkpt>
      <trkpt lat="48.71818" lon="7.18167">
        <ele>344.4</ele>
        <time>2023-12-06T08:33:33Z</time>
      </trkpt>
      <trkpt lat="48.71824" lon="7.18138">
        <ele>344</ele>
        <time>2023-12-06T08:33:40Z</time>
      </trkpt>
      <trkpt lat="48.71828" lon="7.18108">
        <ele>343.3</ele>
        <time>2023-12-06T08:33:47Z</time>
      </trkpt>
      <trkpt lat="48.71832" lon="7.18081">
        <ele>342.7</ele>
        <time>2023-12-06T08:33:53Z</time>
      </trkpt>
      <trkpt lat="48.71835" lon="7.18054">
        <ele>341.9</ele>
        <time>2023-12-06T08:33:59Z</time>
      </trkpt>
      <trkpt lat="48.71838" lon="7.18024">
        <ele>341</ele>
        <time>2023-12-06T08:34:06Z</time>
      </trkpt>
      <trkpt lat="48.71841" lon="7.17997">
        <ele>340</ele>
        <time>2023-12-06T08:34:12Z</time>
      </trkpt>
      <trkpt lat="48.71843" lon="7.1797">
        <ele>339.1</ele>
        <time>2023-12-06T08:34:18Z</time>
      </trkpt>
      <trkpt lat="48.71846" lon="7.17942">
        <ele>338.2</ele>
        <time>2023-12-06T08:34:24Z</time>
      </trkpt>
      <trkpt lat="48.71848" lon="7.17913">
        <ele>337.3</ele>
        <time>2023-12-06T08:34:30Z</time>
      </trkpt>
      <trkpt lat="48.7185" lon="7.17885">
        <ele>336.4</ele>
        <time>2023-12-06T08:34:36Z</time>
      </trkpt>
      <trkpt lat="48.71853" lon="7.17858">
        <ele>335.5</ele>
        <time>2023-12-06T08:34:42Z</time>
      </trkpt>
      <trkpt lat="48.71856" lon="7.1783">
        <ele>334.6</ele>
        <time>2023-12-06T08:34:48Z</time>
      </trkpt>
      <trkpt lat="48.71859" lon="7.17802">
        <ele>333.7</ele>
        <time>2023-12-06T08:34:54Z</time>
      </trkpt>
      <trkpt lat="48.7186" lon="7.17774">
        <ele>332.7</ele>
        <time>2023-12-06T08:35:00Z</time>
      </trkpt>
      <trkpt lat="48.71862" lon="7.17745">
        <ele>331.8</ele>
        <time>2023-12-06T08:35:06Z</time>
      </trkpt>
      <trkpt lat="48.71863" lon="7.17715">
        <ele>330.8</ele>
        <time>2023-12-06T08:35:12Z</time>
      </trkpt>
      <trkpt lat="48.71862" lon="7.17687">
        <ele>329.7</ele>
        <time>2023-12-06T08:35:18Z</time>
      </trkpt>
      <trkpt lat="48.71861" lon="7.17659">
        <ele>328.4</ele>
        <time>2023-12-06T08:35:24Z</time>
      </trkpt>
      <trkpt lat="48.71859" lon="7.1763">
        <ele>327</ele>
        <time>2023-12-06T08:35:30Z</time>
      </trkpt>
      <trkpt lat="48.71858" lon="7.17602">
        <ele>325.6</ele>
        <time>2023-12-06T08:35:36Z</time>
      </trkpt>
      <trkpt lat="48.71859" lon="7.1757">
        <ele>324</ele>
        <time>2023-12-06T08:35:43Z</time>
      </trkpt>
      <trkpt lat="48.71859" lon="7.17542">
        <ele>322.7</ele>
        <time>2023-12-06T08:35:49Z</time>
      </trkpt>
      <trkpt lat="48.71859" lon="7.17512">
        <ele>321.4</ele>
        <time>2023-12-06T08:35:55Z</time>
      </trkpt>
      <trkpt lat="48.7186" lon="7.17482">
        <ele>320.2</ele>
        <time>2023-12-06T08:36:01Z</time>
      </trkpt>
      <trkpt lat="48.71861" lon="7.17453">
        <ele>318.9</ele>
        <time>2023-12-06T08:36:07Z</time>
      </trkpt>
      <trkpt lat="48.71862" lon="7.17424">
        <ele>317.4</ele>
        <time>2023-12-06T08:36:13Z</time>
      </trkpt>
      <trkpt lat="48.71862" lon="7.17395">
        <ele>316.5</ele>
        <time>2023-12-06T08:36:19Z</time>
      </trkpt>
      <trkpt lat="48.71863" lon="7.17366">
        <ele>314.3</ele>
        <time>2023-12-06T08:36:25Z</time>
      </trkpt>
      <trkpt lat="48.71867" lon="7.17337">
        <ele>312.2</ele>
        <time>2023-12-06T08:36:31Z</time>
      </trkpt>
      <trkpt lat="48.71873" lon="7.17308">
        <ele>310</ele>
        <time>2023-12-06T08:36:37Z</time>
      </trkpt>
      <trkpt lat="48.71883" lon="7.17281">
        <ele>307.9</ele>
        <time>2023-12-06T08:36:43Z</time>
      </trkpt>
      <trkpt lat="48.71895" lon="7.1726">
        <ele>306.3</ele>
        <time>2023-12-06T08:36:48Z</time>
      </trkpt>
      <trkpt lat="48.71911" lon="7.1724">
        <ele>304.5</ele>
        <time>2023-12-06T08:36:54Z</time>
      </trkpt>
      <trkpt lat="48.71928" lon="7.17226">
        <ele>303.2</ele>
        <time>2023-12-06T08:36:59Z</time>
      </trkpt>
      <trkpt lat="48.71946" lon="7.17213">
        <ele>302.2</ele>
        <time>2023-12-06T08:37:05Z</time>
      </trkpt>
      <trkpt lat="48.71965" lon="7.17201">
        <ele>301.3</ele>
        <time>2023-12-06T08:37:11Z</time>
      </trkpt>
      <trkpt lat="48.71983" lon="7.17193">
        <ele>300.8</ele>
        <time>2023-12-06T08:37:17Z</time>
      </trkpt>
      <trkpt lat="48.72001" lon="7.17189">
        <ele>300.3</ele>
        <time>2023-12-06T08:37:23Z</time>
      </trkpt>
      <trkpt lat="48.72019" lon="7.17188">
        <ele>299.9</ele>
        <time>2023-12-06T08:37:29Z</time>
      </trkpt>
      <trkpt lat="48.72039" lon="7.17186">
        <ele>299.6</ele>
        <time>2023-12-06T08:37:36Z</time>
      </trkpt>
      <trkpt lat="48.72058" lon="7.17181">
        <ele>299.5</ele>
        <time>2023-12-06T08:37:43Z</time>
      </trkpt>
      <trkpt lat="48.72078" lon="7.17175">
        <ele>299.7</ele>
        <time>2023-12-06T08:37:50Z</time>
      </trkpt>
      <trkpt lat="48.72095" lon="7.17162">
        <ele>300.1</ele>
        <time>2023-12-06T08:37:57Z</time>
      </trkpt>
      <trkpt lat="48.72112" lon="7.1715">
        <ele>300.7</ele>
        <time>2023-12-06T08:38:04Z</time>
      </trkpt>
      <trkpt lat="48.72124" lon="7.1713">
        <ele>301.2</ele>
        <time>2023-12-06T08:38:11Z</time>
      </trkpt>
      <trkpt lat="48.72132" lon="7.17104">
        <ele>301.2</ele>
        <time>2023-12-06T08:38:18Z</time>
      </trkpt>
      <trkpt lat="48.72134" lon="7.17076">
        <ele>300.8</ele>
        <time>2023-12-06T08:38:24Z</time>
      </trkpt>
      <trkpt lat="48.72135" lon="7.17045">
        <ele>299.9</ele>
        <time>2023-12-06T08:38:31Z</time>
      </trkpt>
      <trkpt lat="48.72133" lon="7.17017">
        <ele>298.9</ele>
        <time>2023-12-06T08:38:37Z</time>
      </trkpt>
      <trkpt lat="48.72131" lon="7.16985">
        <ele>297.8</ele>
        <time>2023-12-06T08:38:44Z</time>
      </trkpt>
      <trkpt lat="48.7213" lon="7.16955">
        <ele>296.7</ele>
        <time>2023-12-06T08:38:51Z</time>
      </trkpt>
      <trkpt lat="48.72127" lon="7.16923">
        <ele>295.5</ele>
        <time>2023-12-06T08:38:58Z</time>
      </trkpt>
      <trkpt lat="48.72124" lon="7.16892">
        <ele>294.4</ele>
        <time>2023-12-06T08:39:05Z</time>
      </trkpt>
      <trkpt lat="48.7212" lon="7.16865">
        <ele>293.5</ele>
        <time>2023-12-06T08:39:11Z</time>
      </trkpt>
      <trkpt lat="48.72115" lon="7.16838">
        <ele>292.8</ele>
        <time>2023-12-06T08:39:17Z</time>
      </trkpt>
      <trkpt lat="48.72105" lon="7.16811">
        <ele>292.4</ele>
        <time>2023-12-06T08:39:24Z</time>
      </trkpt>
      <trkpt lat="48.72095" lon="7.16784">
        <ele>292.2</ele>
        <time>2023-12-06T08:39:31Z</time>
      </trkpt>
      <trkpt lat="48.72084" lon="7.1676">
        <ele>292.1</ele>
        <time>2023-12-06T08:39:38Z</time>
      </trkpt>
      <trkpt lat="48.72073" lon="7.16734">
        <ele>291.9</ele>
        <time>2023-12-06T08:39:45Z</time>
      </trkpt>
      <trkpt lat="48.72062" lon="7.1671">
        <ele>291.9</ele>
        <time>2023-12-06T08:39:52Z</time>
      </trkpt>
      <trkpt lat="48.7205" lon="7.16689">
        <ele>292</ele>
        <time>2023-12-06T08:39:59Z</time>
      </trkpt>
      <trkpt lat="48.72036" lon="7.16666">
        <ele>292.2</ele>
        <time>2023-12-06T08:40:06Z</time>
      </trkpt>
      <trkpt lat="48.72023" lon="7.16645">
        <ele>292.5</ele>
        <time>2023-12-06T08:40:13Z</time>
      </trkpt>
      <trkpt lat="48.72008" lon="7.16623">
        <ele>292.8</ele>
        <time>2023-12-06T08:40:20Z</time>
      </trkpt>
      <trkpt lat="48.71992" lon="7.16604">
        <ele>293.3</ele>
        <time>2023-12-06T08:40:27Z</time>
      </trkpt>
      <trkpt lat="48.71975" lon="7.16587">
        <ele>293.8</ele>
        <time>2023-12-06T08:40:34Z</time>
      </trkpt>
      <trkpt lat="48.7196" lon="7.16569">
        <ele>294.4</ele>
        <time>2023-12-06T08:40:41Z</time>
      </trkpt>
      <trkpt lat="48.71945" lon="7.16554">
        <ele>294.9</ele>
        <time>2023-12-06T08:40:48Z</time>
      </trkpt>
      <trkpt lat="48.71929" lon="7.16535">
        <ele>295.3</ele>
        <time>2023-12-06T08:40:56Z</time>
      </trkpt>
      <trkpt lat="48.71913" lon="7.16521">
        <ele>295.6</ele>
        <time>2023-12-06T08:41:03Z</time>
      </trkpt>
      <trkpt lat="48.71896" lon="7.16506">
        <ele>296</ele>
        <time>2023-12-06T08:41:10Z</time>
      </trkpt>
      <trkpt lat="48.7188" lon="7.16491">
        <ele>296.3</ele>
        <time>2023-12-06T08:41:17Z</time>
      </trkpt>
      <trkpt lat="48.71862" lon="7.16478">
        <ele>296.8</ele>
        <time>2023-12-06T08:41:25Z</time>
      </trkpt>
      <trkpt lat="48.71845" lon="7.16461">
        <ele>297.2</ele>
        <time>2023-12-06T08:41:33Z</time>
      </trkpt>
      <trkpt lat="48.71827" lon="7.16449">
        <ele>297.6</ele>
        <time>2023-12-06T08:41:40Z</time>
      </trkpt>
      <trkpt lat="48.7181" lon="7.16437">
        <ele>297.9</ele>
        <time>2023-12-06T08:41:47Z</time>
      </trkpt>
      <trkpt lat="48.71792" lon="7.16423">
        <ele>298.1</ele>
        <time>2023-12-06T08:41:54Z</time>
      </trkpt>
      <trkpt lat="48.71772" lon="7.16414">
        <ele>297.9</ele>
        <time>2023-12-06T08:42:01Z</time>
      </trkpt>
      <trkpt lat="48.71754" lon="7.16411">
        <ele>298.2</ele>
        <time>2023-12-06T08:42:08Z</time>
      </trkpt>
      <trkpt lat="48.71735" lon="7.16407">
        <ele>298.4</ele>
        <time>2023-12-06T08:42:15Z</time>
      </trkpt>
      <trkpt lat="48.71716" lon="7.16403">
        <ele>298.8</ele>
        <time>2023-12-06T08:42:21Z</time>
      </trkpt>
      <trkpt lat="48.71696" lon="7.16397">
        <ele>299.1</ele>
        <time>2023-12-06T08:42:28Z</time>
      </trkpt>
      <trkpt lat="48.71678" lon="7.16387">
        <ele>299.5</ele>
        <time>2023-12-06T08:42:35Z</time>
      </trkpt>
      <trkpt lat="48.71661" lon="7.16378">
        <ele>299.9</ele>
        <time>2023-12-06T08:42:42Z</time>
      </trkpt>
      <trkpt lat="48.71641" lon="7.16374">
        <ele>300.5</ele>
        <time>2023-12-06T08:42:49Z</time>
      </trkpt>
      <trkpt lat="48.71622" lon="7.16365">
        <ele>301</ele>
        <time>2023-12-06T08:42:57Z</time>
      </trkpt>
      <trkpt lat="48.71602" lon="7.16361">
        <ele>301.5</ele>
        <time>2023-12-06T08:43:04Z</time>
      </trkpt>
      <trkpt lat="48.71583" lon="7.1636">
        <ele>302</ele>
        <time>2023-12-06T08:43:10Z</time>
      </trkpt>
      <trkpt lat="48.71563" lon="7.16363">
        <ele>302.4</ele>
        <time>2023-12-06T08:43:17Z</time>
      </trkpt>
      <trkpt lat="48.71544" lon="7.16367">
        <ele>302.7</ele>
        <time>2023-12-06T08:43:25Z</time>
      </trkpt>
      <trkpt lat="48.71524" lon="7.16375">
        <ele>303.4</ele>
        <time>2023-12-06T08:43:32Z</time>
      </trkpt>
      <trkpt lat="48.71507" lon="7.16391">
        <ele>304.2</ele>
        <time>2023-12-06T08:43:40Z</time>
      </trkpt>
      <trkpt lat="48.71489" lon="7.16397">
        <ele>304.9</ele>
        <time>2023-12-06T08:43:47Z</time>
      </trkpt>
      <trkpt lat="48.71469" lon="7.16402">
        <ele>305.9</ele>
        <time>2023-12-06T08:43:54Z</time>
      </trkpt>
      <trkpt lat="48.7145" lon="7.16402">
        <ele>306.9</ele>
        <time>2023-12-06T08:44:01Z</time>
      </trkpt>
      <trkpt lat="48.71429" lon="7.16399">
        <ele>308</ele>
        <time>2023-12-06T08:44:08Z</time>
      </trkpt>
      <trkpt lat="48.7141" lon="7.16395">
        <ele>308.9</ele>
        <time>2023-12-06T08:44:15Z</time>
      </trkpt>
      <trkpt lat="48.71391" lon="7.16387">
        <ele>309.8</ele>
        <time>2023-12-06T08:44:22Z</time>
      </trkpt>
      <trkpt lat="48.71372" lon="7.16379">
        <ele>310.5</ele>
        <time>2023-12-06T08:44:29Z</time>
      </trkpt>
      <trkpt lat="48.71354" lon="7.16369">
        <ele>311.1</ele>
        <time>2023-12-06T08:44:36Z</time>
      </trkpt>
      <trkpt lat="48.71335" lon="7.16361">
        <ele>311.4</ele>
        <time>2023-12-06T08:44:43Z</time>
      </trkpt>
      <trkpt lat="48.71316" lon="7.16348">
        <ele>311.6</ele>
        <time>2023-12-06T08:44:50Z</time>
      </trkpt>
      <trkpt lat="48.71299" lon="7.16337">
        <ele>311.8</ele>
        <time>2023-12-06T08:44:56Z</time>
      </trkpt>
      <trkpt lat="48.71283" lon="7.16324">
        <ele>312.1</ele>
        <time>2023-12-06T08:45:02Z</time>
      </trkpt>
      <trkpt lat="48.71266" lon="7.16307">
        <ele>312.3</ele>
        <time>2023-12-06T08:45:09Z</time>
      </trkpt>
      <trkpt lat="48.7125" lon="7.16288">
        <ele>312.6</ele>
        <time>2023-12-06T08:45:16Z</time>
      </trkpt>
      <trkpt lat="48.71235" lon="7.16273">
        <ele>313</ele>
        <time>2023-12-06T08:45:22Z</time>
      </trkpt>
      <trkpt lat="48.71218" lon="7.16256">
        <ele>313.6</ele>
        <time>2023-12-06T08:45:29Z</time>
      </trkpt>
      <trkpt lat="48.712" lon="7.16242">
        <ele>314.3</ele>
        <time>2023-12-06T08:45:36Z</time>
      </trkpt>
      <trkpt lat="48.71182" lon="7.16249">
        <ele>315</ele>
        <time>2023-12-06T08:45:43Z</time>
      </trkpt>
      <trkpt lat="48.71167" lon="7.16267">
        <ele>315.8</ele>
        <time>2023-12-06T08:45:51Z</time>
      </trkpt>
      <trkpt lat="48.71151" lon="7.16273">
        <ele>316.5</ele>
        <time>2023-12-06T08:45:59Z</time>
      </trkpt>
      <trkpt lat="48.71148" lon="7.16279">
        <ele>316.7</ele>
        <time>2023-12-06T08:46:01Z</time>
      </trkpt>
      <trkpt lat="48.71146" lon="7.16295">
        <ele>317.1</ele>
        <time>2023-12-06T08:46:05Z</time>
      </trkpt>
    </trkseg>
  </trk>
</gpx>